<?xml version="1.0" encoding="UTF-8" standalone="no" ?>
<gpx xmlns="http://www.topografix.com/GPX/1/1" xmlns:xsi="http://www.w3.org/2001/XMLSchema-instance" xsi:schemaLocation="http://www.topografix.com/GPX/1/1 http://www.topografix.com/GPX/1/1/gpx.xsd" version="1.1" creator="VisuGPX - https://www.visugpx.com">
  <metadata>
    <name>Pic de Nédé amiez</name>
    <desc><![CDATA[Circuit en boucle Pic de nédé]]></desc>
  </metadata>
  <trk>
    <name><![CDATA[2014-02-23 15:37:30]]></name>
    <trkseg>
      <trkpt lat="42.89208" lon="0.88699">
        <ele>1022.02</ele>
        <time>2014-02-23T08:14:09Z</time>
      </trkpt>
      <trkpt lat="42.89211" lon="0.88698">
        <ele>1030.19</ele>
        <time>2014-02-23T08:14:36Z</time>
      </trkpt>
      <trkpt lat="42.89158" lon="0.88618">
        <ele>1047.97</ele>
        <time>2014-02-23T08:19:32Z</time>
      </trkpt>
      <trkpt lat="42.89163" lon="0.88687">
        <ele>1055.67</ele>
        <time>2014-02-23T08:23:27Z</time>
      </trkpt>
      <trkpt lat="42.89182" lon="0.88815">
        <ele>1067.2</ele>
        <time>2014-02-23T08:25:16Z</time>
      </trkpt>
      <trkpt lat="42.89157" lon="0.88948">
        <ele>1077.29</ele>
        <time>2014-02-23T08:27:07Z</time>
      </trkpt>
      <trkpt lat="42.89089" lon="0.89037">
        <ele>1086.43</ele>
        <time>2014-02-23T08:28:48Z</time>
      </trkpt>
      <trkpt lat="42.89066" lon="0.89115">
        <ele>1094.12</ele>
        <time>2014-02-23T08:30:29Z</time>
      </trkpt>
      <trkpt lat="42.89156" lon="0.89076">
        <ele>1103.25</ele>
        <time>2014-02-23T08:32:16Z</time>
      </trkpt>
      <trkpt lat="42.89243" lon="0.89025">
        <ele>1111.42</ele>
        <time>2014-02-23T08:34:12Z</time>
      </trkpt>
      <trkpt lat="42.89321" lon="0.88949">
        <ele>1121.52</ele>
        <time>2014-02-23T08:36:32Z</time>
      </trkpt>
      <trkpt lat="42.89414" lon="0.8896">
        <ele>1132.09</ele>
        <time>2014-02-23T08:38:20Z</time>
      </trkpt>
      <trkpt lat="42.89383" lon="0.89009">
        <ele>1141.7</ele>
        <time>2014-02-23T08:40:51Z</time>
      </trkpt>
      <trkpt lat="42.89277" lon="0.8911">
        <ele>1158.05</ele>
        <time>2014-02-23T08:43:35Z</time>
      </trkpt>
      <trkpt lat="42.89192" lon="0.89211">
        <ele>1167.66</ele>
        <time>2014-02-23T08:45:34Z</time>
      </trkpt>
      <trkpt lat="42.8911" lon="0.89304">
        <ele>1180.16</ele>
        <time>2014-02-23T08:47:31Z</time>
      </trkpt>
      <trkpt lat="42.89025" lon="0.89397">
        <ele>1191.21</ele>
        <time>2014-02-23T08:49:29Z</time>
      </trkpt>
      <trkpt lat="42.89059" lon="0.89466">
        <ele>1217.17</ele>
        <time>2014-02-23T08:52:03Z</time>
      </trkpt>
      <trkpt lat="42.89086" lon="0.89573">
        <ele>1243.12</ele>
        <time>2014-02-23T08:59:03Z</time>
      </trkpt>
      <trkpt lat="42.89174" lon="0.89507">
        <ele>1263.31</ele>
        <time>2014-02-23T09:01:29Z</time>
      </trkpt>
      <trkpt lat="42.89294" lon="0.89459">
        <ele>1285.9</ele>
        <time>2014-02-23T09:05:45Z</time>
      </trkpt>
      <trkpt lat="42.89374" lon="0.89451">
        <ele>1305.13</ele>
        <time>2014-02-23T09:09:38Z</time>
      </trkpt>
      <trkpt lat="42.8931" lon="0.89614">
        <ele>1328.2</ele>
        <time>2014-02-23T09:12:51Z</time>
      </trkpt>
      <trkpt lat="42.89266" lon="0.89789">
        <ele>1350.79</ele>
        <time>2014-02-23T09:15:38Z</time>
      </trkpt>
      <trkpt lat="42.89232" lon="0.89975">
        <ele>1374.34</ele>
        <time>2014-02-23T09:18:40Z</time>
      </trkpt>
      <trkpt lat="42.89181" lon="0.90138">
        <ele>1394.05</ele>
        <time>2014-02-23T09:22:01Z</time>
      </trkpt>
      <trkpt lat="42.8912" lon="0.90299">
        <ele>1413.28</ele>
        <time>2014-02-23T09:31:38Z</time>
      </trkpt>
      <trkpt lat="42.89036" lon="0.90393">
        <ele>1404.14</ele>
        <time>2014-02-23T09:34:16Z</time>
      </trkpt>
      <trkpt lat="42.89024" lon="0.90502">
        <ele>1424.33</ele>
        <time>2014-02-23T09:37:58Z</time>
      </trkpt>
      <trkpt lat="42.89036" lon="0.90613">
        <ele>1441.63</ele>
        <time>2014-02-23T09:43:22Z</time>
      </trkpt>
      <trkpt lat="42.89097" lon="0.90645">
        <ele>1467.11</ele>
        <time>2014-02-23T09:49:29Z</time>
      </trkpt>
      <trkpt lat="42.89163" lon="0.90694">
        <ele>1494.03</ele>
        <time>2014-02-23T09:53:18Z</time>
      </trkpt>
      <trkpt lat="42.89227" lon="0.90696">
        <ele>1520.46</ele>
        <time>2014-02-23T10:01:01Z</time>
      </trkpt>
      <trkpt lat="42.89306" lon="0.90672">
        <ele>1553.15</ele>
        <time>2014-02-23T10:09:11Z</time>
      </trkpt>
      <trkpt lat="42.89344" lon="0.90653">
        <ele>1588.24</ele>
        <time>2014-02-23T10:16:42Z</time>
      </trkpt>
      <trkpt lat="42.89349" lon="0.9057">
        <ele>1620.44</ele>
        <time>2014-02-23T10:22:11Z</time>
      </trkpt>
      <trkpt lat="42.89391" lon="0.9054">
        <ele>1640.15</ele>
        <time>2014-02-23T10:31:39Z</time>
      </trkpt>
      <trkpt lat="42.89395" lon="0.90545">
        <ele>1642.55</ele>
        <time>2014-02-23T10:42:03Z</time>
      </trkpt>
      <trkpt lat="42.89382" lon="0.90548">
        <ele>1636.78</ele>
        <time>2014-02-23T10:46:25Z</time>
      </trkpt>
      <trkpt lat="42.89357" lon="0.90574">
        <ele>1623.8</ele>
        <time>2014-02-23T12:31:34Z</time>
      </trkpt>
      <trkpt lat="42.89352" lon="0.90655">
        <ele>1591.12</ele>
        <time>2014-02-23T12:39:00Z</time>
      </trkpt>
      <trkpt lat="42.89313" lon="0.90667">
        <ele>1561.32</ele>
        <time>2014-02-23T12:43:26Z</time>
      </trkpt>
      <trkpt lat="42.89255" lon="0.90703">
        <ele>1529.11</ele>
        <time>2014-02-23T12:49:43Z</time>
      </trkpt>
      <trkpt lat="42.89197" lon="0.90759">
        <ele>1501.24</ele>
        <time>2014-02-23T12:58:15Z</time>
      </trkpt>
      <trkpt lat="42.89119" lon="0.90787">
        <ele>1468.07</ele>
        <time>2014-02-23T13:00:31Z</time>
      </trkpt>
      <trkpt lat="42.89079" lon="0.90694">
        <ele>1457.98</ele>
        <time>2014-02-23T13:04:19Z</time>
      </trkpt>
      <trkpt lat="42.89" lon="0.90679">
        <ele>1429.62</ele>
        <time>2014-02-23T13:05:59Z</time>
      </trkpt>
      <trkpt lat="42.88928" lon="0.90724">
        <ele>1396.93</ele>
        <time>2014-02-23T13:07:46Z</time>
      </trkpt>
      <trkpt lat="42.88847" lon="0.90709">
        <ele>1370.98</ele>
        <time>2014-02-23T13:09:29Z</time>
      </trkpt>
      <trkpt lat="42.88785" lon="0.90732">
        <ele>1366.65</ele>
        <time>2014-02-23T13:18:13Z</time>
      </trkpt>
      <trkpt lat="42.88717" lon="0.90809">
        <ele>1364.25</ele>
        <time>2014-02-23T13:19:44Z</time>
      </trkpt>
      <trkpt lat="42.88644" lon="0.90882">
        <ele>1361.84</ele>
        <time>2014-02-23T13:21:21Z</time>
      </trkpt>
      <trkpt lat="42.88574" lon="0.90936">
        <ele>1371.94</ele>
        <time>2014-02-23T13:25:36Z</time>
      </trkpt>
      <trkpt lat="42.88499" lon="0.90967">
        <ele>1395.01</ele>
        <time>2014-02-23T13:30:25Z</time>
      </trkpt>
      <trkpt lat="42.88437" lon="0.90935">
        <ele>1425.77</ele>
        <time>2014-02-23T13:40:53Z</time>
      </trkpt>
      <trkpt lat="42.88442" lon="0.90787">
        <ele>1421.45</ele>
        <time>2014-02-23T13:45:52Z</time>
      </trkpt>
      <trkpt lat="42.8839" lon="0.90636">
        <ele>1440.19</ele>
        <time>2014-02-23T13:52:02Z</time>
      </trkpt>
      <trkpt lat="42.88322" lon="0.90529">
        <ele>1455.09</ele>
        <time>2014-02-23T13:55:34Z</time>
      </trkpt>
      <trkpt lat="42.88272" lon="0.90387">
        <ele>1447.4</ele>
        <time>2014-02-23T13:58:18Z</time>
      </trkpt>
      <trkpt lat="42.88212" lon="0.90252">
        <ele>1436.83</ele>
        <time>2014-02-23T14:02:16Z</time>
      </trkpt>
      <trkpt lat="42.88238" lon="0.90173">
        <ele>1404.62</ele>
        <time>2014-02-23T14:11:59Z</time>
      </trkpt>
      <trkpt lat="42.88257" lon="0.90096">
        <ele>1373.38</ele>
        <time>2014-02-23T14:14:28Z</time>
      </trkpt>
      <trkpt lat="42.88283" lon="0.90035">
        <ele>1347.91</ele>
        <time>2014-02-23T14:22:23Z</time>
      </trkpt>
      <trkpt lat="42.88316" lon="0.89968">
        <ele>1323.87</ele>
        <time>2014-02-23T14:25:54Z</time>
      </trkpt>
      <trkpt lat="42.8837" lon="0.89907">
        <ele>1292.15</ele>
        <time>2014-02-23T14:28:22Z</time>
      </trkpt>
      <trkpt lat="42.88432" lon="0.89877">
        <ele>1267.16</ele>
        <time>2014-02-23T14:34:33Z</time>
      </trkpt>
      <trkpt lat="42.885" lon="0.89837">
        <ele>1246.01</ele>
        <time>2014-02-23T14:37:37Z</time>
      </trkpt>
      <trkpt lat="42.88531" lon="0.89789">
        <ele>1232.55</ele>
        <time>2014-02-23T14:42:08Z</time>
      </trkpt>
      <trkpt lat="42.88507" lon="0.89724">
        <ele>1206.11</ele>
        <time>2014-02-23T14:45:10Z</time>
      </trkpt>
      <trkpt lat="42.88566" lon="0.89645">
        <ele>1196.5</ele>
        <time>2014-02-23T14:49:13Z</time>
      </trkpt>
      <trkpt lat="42.88649" lon="0.89596">
        <ele>1186.4</ele>
        <time>2014-02-23T14:51:29Z</time>
      </trkpt>
      <trkpt lat="42.88697" lon="0.89515">
        <ele>1177.75</ele>
        <time>2014-02-23T14:57:10Z</time>
      </trkpt>
      <trkpt lat="42.88771" lon="0.89454">
        <ele>1176.31</ele>
        <time>2014-02-23T14:59:00Z</time>
      </trkpt>
      <trkpt lat="42.88865" lon="0.89421">
        <ele>1175.35</ele>
        <time>2014-02-23T15:01:12Z</time>
      </trkpt>
      <trkpt lat="42.88958" lon="0.89364">
        <ele>1173.91</ele>
        <time>2014-02-23T15:02:57Z</time>
      </trkpt>
      <trkpt lat="42.89037" lon="0.89295">
        <ele>1171.02</ele>
        <time>2014-02-23T15:04:39Z</time>
      </trkpt>
      <trkpt lat="42.89133" lon="0.89234">
        <ele>1170.06</ele>
        <time>2014-02-23T15:06:30Z</time>
      </trkpt>
      <trkpt lat="42.89223" lon="0.89155">
        <ele>1169.1</ele>
        <time>2014-02-23T15:08:31Z</time>
      </trkpt>
      <trkpt lat="42.89284" lon="0.89051">
        <ele>1151.8</ele>
        <time>2014-02-23T15:11:13Z</time>
      </trkpt>
      <trkpt lat="42.89316" lon="0.88961">
        <ele>1126.32</ele>
        <time>2014-02-23T15:15:13Z</time>
      </trkpt>
      <trkpt lat="42.89239" lon="0.89037">
        <ele>1116.23</ele>
        <time>2014-02-23T15:16:55Z</time>
      </trkpt>
      <trkpt lat="42.89145" lon="0.89079">
        <ele>1106.61</ele>
        <time>2014-02-23T15:18:28Z</time>
      </trkpt>
      <trkpt lat="42.89051" lon="0.89111">
        <ele>1095.56</ele>
        <time>2014-02-23T15:20:06Z</time>
      </trkpt>
      <trkpt lat="42.89106" lon="0.88999">
        <ele>1086.43</ele>
        <time>2014-02-23T15:21:49Z</time>
      </trkpt>
      <trkpt lat="42.89177" lon="0.88895">
        <ele>1076.33</ele>
        <time>2014-02-23T15:23:35Z</time>
      </trkpt>
      <trkpt lat="42.89166" lon="0.88764">
        <ele>1065.76</ele>
        <time>2014-02-23T15:25:19Z</time>
      </trkpt>
      <trkpt lat="42.89149" lon="0.88614">
        <ele>1055.18</ele>
        <time>2014-02-23T15:27:11Z</time>
      </trkpt>
      <trkpt lat="42.89192" lon="0.88727">
        <ele>1045.09</ele>
        <time>2014-02-23T15:28:56Z</time>
      </trkpt>
    </trkseg>
  </trk>
</gpx>